Garden City Regional Airport
KGCK : now visible

Airfield :











YOU CAN JOIN US ON...

 
LOGIN :

Register | Disclaimer

   EN    FR    IT 

 









Legend :    VFR   Marginal VFR   IFR   Intensive IFR   Very Intensive IFR
Visi :
Ceiling :
>= 8 km
>= 3000ft
5 to 8 km
1000 to 3000 ft
1500m to 5 km
500 to 1000 ft
800 to 1500m
200 to 500 ft
< 800m
< 200 ft
Symbols :   Thunderstorms  Fog  Heavy snow  Heavy precipitations  Wind > 20 kt






- Airport Elevation : 2891 ft
- IATA code : GCK


KGCK - Garden City Regional

CURRENT METAR :
  • 250303Z AUTO 34014G24KT 10SM SCT012 BKN020 OVC025 08/ A2993 RMK AO2 T0078 $

EXPIRED METARs :
  • 250234Z AUTO 34017G26KT 10SM BKN014 OVC021 08/ A2991 RMK AO2 PK WND 35026/0228 RAE0156 P0000 T0078 $
  • 250209Z AUTO 35016G26KT 10SM SCT010 BKN017 OVC024 08/ A2992 RMK AO2 PK WND 36026/0200 RAE0156 P0000 T0078 $
  • 250158Z AUTO 35017G25KT 10SM SCT007 BKN013 OVC022 08/ A2991 RMK AO2 RAE56 P0000 T0078 $
  • 250132Z 36019G28KT 3SM -RA BR BKN007 OVC014 08/08 A2991 RMK AO2 PK WND 36030/0114 CIG 004V013 P0001 T00780078 $
  • 250054Z 01021G27KT 2SM -RA BR BKN007 BKN014 OVC021 08/08 A2988 RMK AO2 PK WND 01029/0043 RAB19 SLP116 P0000 T00830083 $
  • 250035Z 36020G28KT 1 3/4SM -RA BR OVC009 08/08 A2988 RMK AO2 PK WND 01028/0030 RAB19 CIG 006V011 P0000 T00830083 $
  • 250028Z 36022G28KT 3SM -RA BR OVC009 08/08 A2988 RMK AO2 PK WND 36028/0027 RAB19 CIG 007V011 P0000 T00830083 $

TAF KGCK
Valid from the 25 at 00:00 until the 26 at 00:00 UTC


242339Z 2500/2524 01020G30KT P6SM OVC009
TEMPO 2500/2504 OVC012
FM251200 35022G32KT P6SM BKN012
KZKC FIR / North America



MET'MAP, your aeronautical weather chart ! - Copyright ORBIFLY December 2007 - Disclaimer

ORBIFLY MET'MAP TEAM :

Programming & Development : Alexandra Zaïnal
Original concept : Baudouin d'Aumeries
Technical & hardware support : Manuel Goepfert
Assistance : Marc-Olivier Méhu

Contact : metmap@orbifly.com




SOURCES & CREDITS :

   NOAA       Earth
Advisory